Pearces, Michigan
Current Conditions -  °F | °C
As of 11:55 AM on Saturday 25 Oct 2014 (Local Time) from KOZW Reporting Station
Haze Haze  
Wind Chill: 14°   Ceiling: 1400
Heat Index: 14°   Visibility: 5mi
Dew Point: 11°   Wind: 15mph
Humidity: 86%   Direction: 270°W
Pressure: 29.82"   Gusts: 20mph
Location:  42.7°N, 83.9305°W
Report Text: KOZW 251555Z AUTO 27013G17KT 5SM BR OVC014 14/11 A2982 RMK AO2 T01350112
Loading
Personal Weather Stations






























Interactive Weather Map
Tropical Storm Tracking
New forecast layout! Learn more

10-Day Weather Forecast

Advertisements
Track Severe Weather on mobile